Latest Weather Observations for Moruya Airport

IDN60801

Issued at 10:02 pm EST Friday 4 September 2015 (issued every 30 minutes, with the page automatically refreshed every 10 minutes)

About weather observations | Map of weather stations | Latest weather observations for NSW | Other Formats
Station Details ID: 069148 Name: MORUYA AIRPORT AWS Lat: -35.90 Lon: 150.14 Height: 4.0 m
Data from the previous 72 hours. | See also: Recent months at Moruya Airport
Date/Time
EST
Temp
°C
App
Temp
°C
Dew
Point
Rel
Hum
%
Delta-T
°C
Wind Press
QNH
hPa
Press
MSL
hPa
Rain
since 9 am
mm
Dir
 
Spd
km/h
Gust
km/h
Spd
kts
Gust
kts
04/10:00pm 12.1 10.7 9.5 84 1.3 WSW 7 9 4 5 1022.6 1022.6 -
04/09:30pm 12.2 10.7 9.2 82 1.5 WSW 7 9 4 5 1022.4 1022.4 0.0
04/09:00pm 12.6 11.1 9.1 79 1.8 W 7 9 4 5 1022.4 1022.4 0.0
04/08:30pm 12.6 11.2 9.6 82 1.5 NW 7 11 4 6 1022.4 1022.4 0.0
04/08:00pm 12.4 12.5 10.0 85 1.2 CALM 0 0 0 0 1022.2 1022.2 0.0
04/07:30pm 12.5 12.5 9.9 84 1.3 CALM 0 0 0 0 1022.0 1022.0 0.0
04/07:00pm 12.9 12.8 9.5 80 1.7 CALM 0 0 0 0 1021.8 1021.8 0.0
04/06:30pm 13.7 13.5 9.2 74 2.3 CALM 0 0 0 0 1021.6 1021.6 0.0
04/06:00pm 14.6 12.4 7.9 64 3.3 ENE 9 11 5 6 1021.3 1021.3 0.0
04/05:30pm 14.7 12.5 8.0 64 3.3 ENE 9 13 5 7 1021.1 1021.1 0.0
04/05:00pm 14.9 13.2 8.2 64 3.3 ENE 7 13 4 7 1020.9 1020.9 0.0
04/04:30pm 15.0 13.3 8.3 64 3.4 ESE 7 11 4 6 1020.7 1020.7 0.0
04/04:00pm 15.3 13.1 7.8 61 3.7 ESE 9 17 5 9 1020.8 1020.8 0.0
04/03:30pm 15.3 12.6 7.3 59 4.0 ESE 11 17 6 9 1020.8 1020.8 0.0
04/03:00pm 15.6 13.0 7.6 59 4.0 ESE 11 15 6 8 1020.7 1020.7 0.0
04/02:30pm 15.3 12.2 7.3 59 4.0 ESE 13 17 7 9 1020.9 1020.9 0.0
04/02:00pm 15.4 12.3 7.4 59 3.9 ESE 13 20 7 11 1020.9 1020.9 0.0
04/01:30pm 16.2 12.5 6.3 52 4.8 SE 15 20 8 11 1021.0 1021.0 0.0
04/01:00pm 15.5 11.4 6.0 53 4.6 SE 17 20 9 11 1021.3 1021.3 0.0
04/12:30pm 15.9 11.8 6.1 52 4.7 SE 17 20 9 11 1021.8 1021.8 0.0
04/12:00pm 15.2 11.4 5.7 53 4.5 SE 15 20 8 11 1022.3 1022.3 0.0
04/11:30am 15.5 12.0 5.4 51 4.8 SE 13 19 7 10 1022.5 1022.5 0.0
04/11:00am 15.4 10.9 5.9 53 4.5 SE 19 26 10 14 1022.6 1022.6 0.0
04/10:30am 15.7 12.0 8.0 60 3.9 SE 17 20 9 11 1022.8 1022.8 0.0
04/10:00am 15.4 12.6 6.9 57 4.1 S 11 19 6 10 1022.8 1022.8 0.0
04/09:30am 15.1 11.1 6.7 57 4.1 S 17 24 9 13 1023.0 1023.0 0.0
04/09:00am 14.7 11.4 8.0 64 3.3 SSW 15 19 8 10 1023.0 1023.0 8.0
04/08:30am 13.9 10.8 7.4 65 3.2 SSW 13 17 7 9 1023.0 1023.0 -
04/08:00am 13.1 9.3 7.5 69 2.7 SSW 17 24 9 13 1022.8 1022.8 -
04/07:30am 11.8 8.5 7.9 77 1.9 SW 15 20 8 11 1022.5 1022.5 -
04/07:00am 10.8 8.1 7.3 79 1.7 WSW 11 17 6 9 1021.9 1021.9 -
04/06:30am 10.5 7.4 7.4 81 1.5 SW 13 17 7 9 1021.4 1021.4 -
04/06:00am 10.7 6.9 7.6 81 1.5 SW 17 20 9 11 1021.1 1021.1 -
04/05:30am 10.9 7.0 7.2 78 1.8 SW 17 22 9 12 1020.8 1020.8 -
04/05:00am 11.0 7.6 7.7 80 1.6 WSW 15 19 8 10 1020.3 1020.3 -
04/04:30am 11.1 7.4 7.8 80 1.6 WSW 17 24 9 13 1019.8 1019.8 -
04/04:00am 11.3 7.2 8.0 80 1.6 SW 19 24 10 13 1019.6 1019.6 -
04/03:30am 10.9 6.9 8.3 84 1.3 SW 19 26 10 14 1019.3 1019.3 -
04/03:00am 11.4 8.2 8.4 82 1.5 SW 15 20 8 11 1019.2 1019.2 2.0
04/02:30am 11.8 8.4 9.0 83 1.4 WSW 17 22 9 12 1019.1 1019.1 -
04/02:00am 12.2 9.3 9.6 84 1.3 SW 15 19 8 10 1018.9 1018.9 -
04/01:30am 12.3 9.1 10.0 86 1.2 SW 17 24 9 13 1019.0 1019.0 -
04/01:00am 12.6 8.5 10.1 85 1.3 SW 22 32 12 17 1019.0 1019.0 -
04/12:30am 12.6 9.1 10.3 86 1.2 SW 19 26 10 14 1018.4 1018.4 -
04/12:00am 12.7 9.1 10.4 86 1.2 SW 20 30 11 16 1017.9 1017.9 -
 
Date/Time
EST
Temp
°C
App
Temp
°C
Dew
Point
Rel
Hum
%
Delta-T
°C
Wind Press
QNH
hPa
Press
MSL
hPa
Rain
since 9 am
mm
Dir
 
Spd
km/h
Gust
km/h
Spd
kts
Gust
kts
03/11:30pm 12.9 8.9 10.6 86 1.2 SW 22 30 12 16 1017.4 1017.4 -
03/11:00pm 12.7 8.8 10.8 88 1.0 SW 22 30 12 16 1017.2 1017.2 -
03/10:30pm 12.8 8.9 10.9 88 1.0 SW 22 33 12 18 1016.9 1016.9 -
03/10:00pm 12.8 9.0 11.2 90 0.8 SW 22 33 12 18 1016.4 1016.4 -
03/09:30pm 12.7 8.6 11.3 91 0.7 SW 24 32 13 17 1016.0 1016.0 -
03/09:00pm 12.7 9.2 10.9 89 0.9 SW 20 32 11 17 1015.3 1015.3 5.0
03/08:30pm 12.8 9.9 10.9 88 1.0 SW 17 24 9 13 1014.9 1014.9 -
03/08:00pm 13.1 10.2 11.0 87 1.1 SW 17 24 9 13 1014.4 1014.4 -
03/07:30pm 13.0 9.8 11.1 88 1.0 WSW 19 24 10 13 1013.4 1013.4 -
03/07:00pm 12.7 9.3 11.1 90 0.8 SW 20 30 11 16 1012.9 1012.9 -
03/06:30pm 11.9 10.1 10.8 93 0.6 W 11 17 6 9 1012.3 1012.3 -
03/06:00pm 11.9 10.4 10.5 91 0.7 WSW 9 13 5 7 1011.7 1011.7 -
03/05:30pm 12.0 9.6 10.1 88 1.0 SW 13 20 7 11 1011.0 1011.0 -
03/05:00pm 12.5 9.8 10.4 87 1.1 SW 15 24 8 13 1010.5 1010.5 -
03/04:30pm 14.3 10.3 9.1 71 2.6 S 20 33 11 18 1009.8 1009.8 -
03/04:00pm 15.4 11.9 8.6 64 3.5 SSW 17 22 9 12 1009.1 1009.1 -
03/03:30pm 15.7 11.5 8.4 62 3.7 SSW 20 30 11 16 1008.5 1008.4 -
03/03:00pm 16.0 11.4 8.2 60 4.0 SSW 22 32 12 17 1007.9 1007.8 -
03/02:30pm 16.3 11.7 8.3 59 4.1 SSW 22 32 12 17 1007.2 1007.1 -
03/02:00pm 16.0 12.1 8.7 62 3.7 SW 19 28 10 15 1006.6 1006.5 -
03/01:30pm 16.0 11.6 9.0 63 3.6 SSW 22 35 12 19 1006.3 1006.2 -
03/01:00pm 16.7 12.9 9.9 64 3.6 SSW 20 32 11 17 1006.5 1006.4 -
03/12:00pm 16.5 12.7 12.3 76 2.3 SSW 24 35 13 19 1006.3 1006.2 0.0
03/11:30am 15.7 12.7 12.1 79 2.0 SSW 19 28 10 15 1006.3 1006.2 0.0
03/11:00am 16.3 12.6 12.8 80 1.9 SW 24 35 13 19 1006.2 1006.1 0.0
03/10:30am 16.6 13.8 13.1 80 2.0 SW 20 30 11 16 1006.0 1005.9 0.0
03/10:00am 15.6 12.7 12.4 81 1.8 SSW 19 28 10 15 1006.0 1005.9 0.0
03/09:30am 14.1 12.0 12.3 89 1.0 SW 15 20 8 11 1005.9 1005.8 0.0
03/09:00am 13.3 12.3 13.3 100 0.0 SW 11 13 6 7 1005.8 1005.7 3.6
03/08:30am 11.2 9.9 11.2 100 0.0 SW 9 15 5 8 1005.3 1005.2 3.6
03/08:16am 10.1 8.1 10.1 100 0.0 WSW 11 15 6 8 1005.2 1005.1 3.6
03/08:00am 9.3 6.7 9.3 100 0.0 SW 13 22 7 12 1005.0 1004.9 3.6
03/07:30am 8.2 6.1 8.2 100 0.0 W 9 11 5 6 1004.5 1004.4 3.6
03/07:07am 8.1 7.7 8.1 100 0.0 CALM 0 0 0 0 1004.5 1004.4 3.6
03/07:00am 8.1 7.7 8.1 100 0.0 CALM 0 6 0 3 1004.4 1004.3 3.6
03/06:48am 8.3 6.2 8.3 100 0.0 NW 9 13 5 7 1004.2 1004.1 3.6
03/06:30am 8.3 6.8 8.3 100 0.0 W 6 9 3 5 1003.9 1003.8 3.6
03/06:05am 8.7 7.7 8.7 100 0.0 W 4 9 2 5 1004.0 1003.9 3.6
03/06:00am 8.8 7.8 8.8 100 0.0 W 4 9 2 5 1004.0 1003.9 3.6
03/05:30am 9.3 8.0 9.3 100 0.0 W 6 9 3 5 1004.3 1004.2 3.6
03/05:00am 9.5 8.1 9.5 100 0.0 WNW 7 9 4 5 1004.4 1004.3 3.6
03/04:58am 9.5 8.3 9.5 100 0.0 WNW 6 9 3 5 1004.3 1004.2 3.6
03/04:30am 9.5 9.4 9.5 100 0.0 CALM 0 2 0 1 1004.7 1004.6 3.6
03/04:26am 9.5 9.4 9.5 100 0.0 CALM 0 2 0 1 1004.5 1004.4 3.6
03/04:00am 9.8 9.0 9.8 100 0.0 W 4 7 2 4 1004.8 1004.7 3.6
03/03:30am 10.0 8.9 10.0 100 0.0 NW 6 7 3 4 1005.1 1005.0 3.6
03/03:00am 10.3 9.3 10.3 100 0.0 NNW 6 9 3 5 1005.7 1005.6 3.4
03/02:49am 10.3 9.1 10.3 100 0.0 NNW 7 9 4 5 1005.8 1005.7 3.4
03/02:30am 10.3 10.4 10.3 100 0.0 CALM 0 0 0 0 1005.9 1005.8 3.0
03/02:01am 10.4 9.4 10.4 100 0.0 N 6 9 3 5 1006.6 1006.5 2.4
03/02:00am 10.4 9.2 10.4 100 0.0 N 7 9 4 5 1006.7 1006.6 2.4
03/01:55am 10.4 9.2 10.4 100 0.0 NNE 7 9 4 5 1007.0 1006.9 2.2
03/01:35am 10.2 9.5 10.2 100 0.0 N 4 6 2 3 1007.4 1007.3 1.4
03/01:30am 10.4 10.2 10.4 100 0.0 N 2 6 1 3 1007.4 1007.3 1.2
03/01:00am 10.2 9.5 10.2 100 0.0 WSW 4 7 2 4 1007.4 1007.3 0.0
03/12:30am 10.3 10.4 10.3 100 0.0 CALM 0 0 0 0 1007.8 1007.7 0.0
03/12:00am 10.7 10.9 10.7 100 0.0 CALM 0 6 0 3 1008.2 1008.1 0.0
 
Date/Time
EST
Temp
°C
App
Temp
°C
Dew
Point
Rel
Hum
%
Delta-T
°C
Wind Press
QNH
hPa
Press
MSL
hPa
Rain
since 9 am
mm
Dir
 
Spd
km/h
Gust
km/h
Spd
kts
Gust
kts
02/11:30pm 10.3 9.3 10.3 100 0.0 W 6 11 3 6 1007.7 1007.6 0.0
02/11:00pm 10.0 8.7 10.0 100 0.0 WSW 7 13 4 7 1007.7 1007.6 0.0
02/10:30pm 10.3 9.3 10.3 100 0.0 WSW 6 9 3 5 1008.1 1008.0 0.0
02/10:00pm 9.5 8.3 9.5 100 0.0 W 6 9 3 5 1008.4 1008.3 0.0
02/09:30pm 8.9 7.9 8.9 100 0.0 WNW 4 9 2 5 1008.8 1008.7 0.0
02/09:00pm 9.0 7.6 9.0 100 0.0 WNW 6 9 3 5 1009.1 1009.1 0.0
02/08:30pm 9.1 7.8 9.1 100 0.0 W 6 7 3 4 1009.4 1009.4 0.0
02/08:00pm 9.9 9.9 9.9 100 0.0 CALM 0 4 0 2 1009.5 1009.5 0.0
02/07:30pm 10.7 10.5 10.4 98 0.2 WSW 2 6 1 3 1009.7 1009.7 0.0
02/07:00pm 11.6 10.5 10.8 95 0.4 NW 7 9 4 5 1009.8 1009.8 0.0
02/06:30pm 12.1 12.2 10.3 89 0.9 CALM 0 0 0 0 1009.8 1009.8 0.0
02/06:00pm 14.2 13.1 9.8 75 2.3 N 6 9 3 5 1009.7 1009.7 0.0
02/05:30pm 14.9 12.9 10.1 73 2.5 N 11 17 6 9 1009.8 1009.8 0.0
02/05:00pm 16.2 13.9 10.3 68 3.1 NNE 13 17 7 9 1009.9 1009.9 0.0
02/04:30pm 17.2 14.0 10.1 63 3.8 NNE 17 20 9 11 1010.1 1010.1 0.0
02/04:00pm 17.4 13.3 10.1 62 3.9 NE 22 30 12 16 1010.3 1010.3 0.0
02/03:30pm 16.5 13.2 9.4 63 3.7 NE 17 20 9 11 1010.4 1010.4 0.0
02/03:00pm 17.1 13.2 8.5 57 4.4 NE 19 24 10 13 1010.5 1010.5 0.0
02/02:30pm 16.8 13.0 9.7 63 3.7 NE 20 26 11 14 1010.9 1010.9 0.0
02/02:00pm 16.5 12.5 10.4 67 3.2 NE 22 26 12 14 1011.3 1011.3 0.0
02/01:30pm 16.4 12.1 10.9 70 2.9 NE 24 28 13 15 1011.7 1011.7 0.0
02/01:00pm 16.8 13.1 11.5 71 2.9 ENE 22 26 12 14 1012.4 1012.4 0.0
02/12:30pm 16.3 11.6 9.3 63 3.6 NE 24 28 13 15 1013.0 1013.0 0.0
02/12:00pm 15.6 11.4 9.7 68 3.1 ENE 22 26 12 14 1013.6 1013.6 0.0
02/11:30am 15.6 11.7 8.8 64 3.5 ENE 19 20 10 11 1014.3 1014.3 0.0
02/11:00am 14.9 12.1 10.1 73 2.5 ENE 15 17 8 9 1015.0 1015.0 0.0
02/10:30am 14.3 11.4 8.3 67 3.0 ENE 13 17 7 9 1015.5 1015.5 0.0
02/10:00am 14.6 12.6 8.5 67 3.1 ENE 9 15 5 8 1015.7 1015.7 0.0
02/09:30am 13.9 12.3 7.9 67 3.0 WSW 6 9 3 5 1015.9 1015.9 0.0
02/09:00am 12.6 10.3 7.5 71 2.5 W 9 13 5 7 1016.3 1016.3 0.0
02/08:30am 10.9 8.5 7.0 77 1.9 W 9 15 5 8 1016.4 1016.4 0.0
02/08:00am 8.3 6.6 7.7 96 0.3 SSW 6 9 3 5 1016.4 1016.4 0.0
02/07:30am 6.4 5.6 6.4 100 0.0 CALM 0 2 0 1 1016.3 1016.3 0.0
02/07:00am 4.7 2.4 4.7 100 0.0 W 6 6 3 3 1016.1 1016.1 0.0
02/06:30am 3.6 2.2 3.6 100 0.0 CALM 0 4 0 2 1016.1 1016.1 0.0
02/06:00am 3.9 1.4 3.9 100 0.0 WSW 6 9 3 5 1015.8 1015.8 0.0
02/05:30am 3.4 1.2 3.4 100 0.0 WSW 4 7 2 4 1015.8 1015.8 0.0
02/05:00am 4.1 1.7 4.1 100 0.0 W 6 7 3 4 1015.8 1015.8 0.0
02/04:30am 4.6 2.6 4.6 100 0.0 W 4 6 2 3 1015.8 1015.8 0.0
02/04:00am 4.5 2.1 4.5 100 0.0 W 6 7 3 4 1015.7 1015.7 0.0
02/03:30am 4.6 2.3 4.6 100 0.0 W 6 7 3 4 1015.5 1015.5 0.0
02/03:00am 4.6 2.3 4.6 100 0.0 W 6 7 3 4 1015.7 1015.7 0.0
02/02:30am 5.2 3.0 5.2 100 0.0 W 6 7 3 4 1016.0 1016.0 0.0
02/02:00am 5.3 3.1 5.3 100 0.0 W 6 7 3 4 1016.3 1016.3 0.0
02/01:30am 5.4 3.0 5.4 100 0.0 W 7 9 4 5 1016.3 1016.3 0.0
02/01:00am 5.6 3.3 5.6 100 0.0 WSW 7 9 4 5 1016.3 1016.3 0.0
02/12:30am 6.6 4.7 6.6 100 0.0 W 6 9 3 5 1016.3 1016.3 0.0
02/12:00am 6.2 4.0 6.2 100 0.0 WSW 7 11 4 6 1016.4 1016.4 0.0
 
Date/Time
EST
Temp
°C
App
Temp
°C
Dew
Point
Rel
Hum
%
Delta-T
°C
Wind Press
QNH
hPa
Press
MSL
hPa
Rain
since 9 am
mm
Dir
 
Spd
km/h
Gust
km/h
Spd
kts
Gust
kts
01/11:30pm 6.4 4.3 6.0 97 0.2 WSW 6 7 3 4 1016.1 1016.1 0.0
01/11:00pm 7.8 6.1 5.9 88 0.9 WSW 4 9 2 5 1016.2 1016.2 0.0
01/10:30pm 8.1 5.6 6.6 90 0.7 W 9 13 5 7 1016.1 1016.1 0.0

Other Formats:

Comma delimited format used in spreadsheet applications
http://www.bom.gov.au/fwo/IDN60801/IDN60801.95937.axf

JavaScript Object Notation format (JSON) in row-major order
http://www.bom.gov.au/fwo/IDN60801/IDN60801.95937.json